sensor_id;sensor_type;location;lat;lon;timestamp;temperature;humidity
18252;DHT22;26917;52.328;20.878;2022-10-16T00:01:07;12.90;99.90
18252;DHT22;26917;52.328;20.878;2022-10-16T00:03:35;13.00;99.90
18252;DHT22;26917;52.328;20.878;2022-10-16T00:06:04;13.00;99.90
18252;DHT22;26917;52.328;20.878;2022-10-16T00:08:33;13.00;99.90
18252;DHT22;26917;52.328;20.878;2022-10-16T00:11:03;13.00;99.90
18252;DHT22;26917;52.328;20.878;2022-10-16T00:13:34;13.00;99.90
18252;DHT22;26917;52.328;20.878;2022-10-16T00:16:03;13.00;99.90
18252;DHT22;26917;52.328;20.878;2022-10-16T00:18:31;13.00;99.90
18252;DHT22;26917;52.328;20.878;2022-10-16T00:21:02;13.00;99.90
18252;DHT22;26917;52.328;20.878;2022-10-16T00:23:31;13.00;99.90
18252;DHT22;26917;52.328;20.878;2022-10-16T00:26:02;13.00;99.90
18252;DHT22;26917;52.328;20.878;2022-10-16T00:28:33;13.00;99.90
18252;DHT22;26917;52.328;20.878;2022-10-16T00:31:03;13.00;99.90
18252;DHT22;26917;52.328;20.878;2022-10-16T00:33:31;13.00;99.90
18252;DHT22;26917;52.328;20.878;2022-10-16T00:36:00;13.00;99.90
18252;DHT22;26917;52.328;20.878;2022-10-16T00:38:28;13.00;99.90
18252;DHT22;26917;52.328;20.878;2022-10-16T00:40:56;13.10;99.90
18252;DHT22;26917;52.328;20.878;2022-10-16T00:43:39;13.10;99.90
18252;DHT22;26917;52.328;20.878;2022-10-16T00:46:14;13.10;99.90
18252;DHT22;26917;52.328;20.878;2022-10-16T00:48:49;13.10;99.90
18252;DHT22;26917;52.328;20.878;2022-10-16T00:51:19;13.10;99.90
18252;DHT22;26917;52.328;20.878;2022-10-16T00:53:49;13.10;99.90
18252;DHT22;26917;52.328;20.878;2022-10-16T00:56:18;13.10;99.90
18252;DHT22;26917;52.328;20.878;2022-10-16T00:58:47;13.10;99.90
18252;DHT22;26917;52.328;20.878;2022-10-16T01:01:16;13.10;99.90
18252;DHT22;26917;52.328;20.878;2022-10-16T01:03:44;13.10;99.90
18252;DHT22;26917;52.328;20.878;2022-10-16T01:06:20;13.10;99.90
18252;DHT22;26917;52.328;20.878;2022-10-16T01:09:13;13.10;99.90
18252;DHT22;26917;52.328;20.878;2022-10-16T01:11:48;13.20;99.90
18252;DHT22;26917;52.328;20.878;2022-10-16T01:14:26;13.20;99.90
18252;DHT22;26917;52.328;20.878;2022-10-16T01:17:02;13.20;99.90
18252;DHT22;26917;52.328;20.878;2022-10-16T01:19:44;13.20;99.90
18252;DHT22;26917;52.328;20.878;2022-10-16T01:22:19;13.20;99.90
18252;DHT22;26917;52.328;20.878;2022-10-16T01:24:49;13.30;99.90
18252;DHT22;26917;52.328;20.878;2022-10-16T01:27:22;13.30;99.90
18252;DHT22;26917;52.328;20.878;2022-10-16T01:29:54;13.20;99.90
18252;DHT22;26917;52.328;20.878;2022-10-16T01:32:30;13.30;99.90
18252;DHT22;26917;52.328;20.878;2022-10-16T01:35:02;13.30;99.90
18252;DHT22;26917;52.328;20.878;2022-10-16T01:37:35;13.30;99.90
18252;DHT22;26917;52.328;20.878;2022-10-16T01:40:09;13.30;99.90
18252;DHT22;26917;52.328;20.878;2022-10-16T01:42:42;13.30;99.90
18252;DHT22;26917;52.328;20.878;2022-10-16T01:45:14;13.30;99.90
18252;DHT22;26917;52.328;20.878;2022-10-16T01:47:45;13.20;99.90
18252;DHT22;26917;52.328;20.878;2022-10-16T01:50:16;13.30;99.90
18252;DHT22;26917;52.328;20.878;2022-10-16T01:52:48;13.20;99.90
18252;DHT22;26917;52.328;20.878;2022-10-16T01:55:20;13.20;99.90
18252;DHT22;26917;52.328;20.878;2022-10-16T01:57:51;13.20;99.90
18252;DHT22;26917;52.328;20.878;2022-10-16T02:00:21;13.20;99.90
18252;DHT22;26917;52.328;20.878;2022-10-16T02:02:52;13.10;99.90
18252;DHT22;26917;52.328;20.878;2022-10-16T02:05:25;13.10;99.90
18252;DHT22;26917;52.328;20.878;2022-10-16T02:07:55;13.10;99.90
18252;DHT22;26917;52.328;20.878;2022-10-16T02:10:27;13.10;99.90
18252;DHT22;26917;52.328;20.878;2022-10-16T02:13:03;13.10;99.90
18252;DHT22;26917;52.328;20.878;2022-10-16T02:15:33;13.10;99.90
18252;DHT22;26917;52.328;20.878;2022-10-16T02:18:01;13.10;99.90
18252;DHT22;26917;52.328;20.878;2022-10-16T02:20:34;13.00;99.90
18252;DHT22;26917;52.328;20.878;2022-10-16T02:23:04;13.00;99.90
18252;DHT22;26917;52.328;20.878;2022-10-16T02:25:40;13.00;99.90
18252;DHT22;26917;52.328;20.878;2022-10-16T02:28:15;13.00;99.90
18252;DHT22;26917;52.328;20.878;2022-10-16T02:30:46;13.00;99.90
18252;DHT22;26917;52.328;20.878;2022-10-16T02:33:18;13.00;99.90
18252;DHT22;26917;52.328;20.878;2022-10-16T02:35:48;13.00;99.90
18252;DHT22;26917;52.328;20.878;2022-10-16T02:38:18;13.00;99.90
18252;DHT22;26917;52.328;20.878;2022-10-16T02:40:48;13.00;99.90
18252;DHT22;26917;52.328;20.878;2022-10-16T02:43:19;13.00;99.90
18252;DHT22;26917;52.328;20.878;2022-10-16T02:45:47;13.00;99.90
18252;DHT22;26917;52.328;20.878;2022-10-16T02:48:15;13.00;99.90
18252;DHT22;26917;52.328;20.878;2022-10-16T02:50:43;13.00;99.90
18252;DHT22;26917;52.328;20.878;2022-10-16T02:53:11;13.00;99.90
18252;DHT22;26917;52.328;20.878;2022-10-16T02:55:39;13.00;99.90
18252;DHT22;26917;52.328;20.878;2022-10-16T02:58:08;13.00;99.90
18252;DHT22;26917;52.328;20.878;2022-10-16T03:00:37;13.00;99.90
18252;DHT22;26917;52.328;20.878;2022-10-16T03:03:06;13.00;99.90
18252;DHT22;26917;52.328;20.878;2022-10-16T03:05:34;13.00;99.90
18252;DHT22;26917;52.328;20.878;2022-10-16T03:08:02;13.00;99.90
18252;DHT22;26917;52.328;20.878;2022-10-16T03:10:30;13.00;99.90
18252;DHT22;26917;52.328;20.878;2022-10-16T03:12:58;13.00;99.90
18252;DHT22;26917;52.328;20.878;2022-10-16T03:15:27;13.00;99.90
18252;DHT22;26917;52.328;20.878;2022-10-16T03:17:58;13.00;99.90
18252;DHT22;26917;52.328;20.878;2022-10-16T03:20:27;13.00;99.90
18252;DHT22;26917;52.328;20.878;2022-10-16T03:22:55;13.00;99.90
18252;DHT22;26917;52.328;20.878;2022-10-16T03:25:23;13.00;99.90
18252;DHT22;26917;52.328;20.878;2022-10-16T03:27:52;12.90;99.90
18252;DHT22;26917;52.328;20.878;2022-10-16T03:30:20;12.90;99.90
18252;DHT22;26917;52.328;20.878;2022-10-16T03:32:48;12.90;99.90
18252;DHT22;26917;52.328;20.878;2022-10-16T03:35:23;12.90;99.90
18252;DHT22;26917;52.328;20.878;2022-10-16T03:37:51;12.90;99.90
18252;DHT22;26917;52.328;20.878;2022-10-16T03:40:20;12.90;99.90
18252;DHT22;26917;52.328;20.878;2022-10-16T03:42:48;12.90;99.90
18252;DHT22;26917;52.328;20.878;2022-10-16T03:45:16;12.90;99.90
18252;DHT22;26917;52.328;20.878;2022-10-16T03:47:44;12.90;99.90
18252;DHT22;26917;52.328;20.878;2022-10-16T03:50:12;12.90;99.90
18252;DHT22;26917;52.328;20.878;2022-10-16T03:52:42;12.80;99.90
18252;DHT22;26917;52.328;20.878;2022-10-16T03:55:10;12.80;99.90
18252;DHT22;26917;52.328;20.878;2022-10-16T03:57:38;12.70;99.90
18252;DHT22;26917;52.328;20.878;2022-10-16T04:00:08;12.70;99.90
18252;DHT22;26917;52.328;20.878;2022-10-16T04:02:39;12.60;99.90
18252;DHT22;26917;52.328;20.878;2022-10-16T04:05:08;12.50;99.90
18252;DHT22;26917;52.328;20.878;2022-10-16T04:07:36;12.40;99.90
18252;DHT22;26917;52.328;20.878;2022-10-16T04:10:06;12.30;99.90
18252;DHT22;26917;52.328;20.878;2022-10-16T04:12:35;12.20;99.90
18252;DHT22;26917;52.328;20.878;2022-10-16T04:15:03;12.10;99.90
18252;DHT22;26917;52.328;20.878;2022-10-16T04:17:31;12.10;99.90
18252;DHT22;26917;52.328;20.878;2022-10-16T04:19:59;12.10;99.90
18252;DHT22;26917;52.328;20.878;2022-10-16T04:22:28;12.00;99.90
18252;DHT22;26917;52.328;20.878;2022-10-16T04:24:56;12.00;99.90
18252;DHT22;26917;52.328;20.878;2022-10-16T04:27:25;11.90;99.90
18252;DHT22;26917;52.328;20.878;2022-10-16T04:29:56;11.80;99.90
18252;DHT22;26917;52.328;20.878;2022-10-16T04:32:24;11.70;99.90
18252;DHT22;26917;52.328;20.878;2022-10-16T04:34:53;11.70;99.90
18252;DHT22;26917;52.328;20.878;2022-10-16T04:37:23;11.60;99.90
18252;DHT22;26917;52.328;20.878;2022-10-16T04:39:53;11.50;99.90
18252;DHT22;26917;52.328;20.878;2022-10-16T04:42:21;11.50;99.90
18252;DHT22;26917;52.328;20.878;2022-10-16T04:44:51;11.40;99.90
18252;DHT22;26917;52.328;20.878;2022-10-16T04:47:19;11.40;99.90
18252;DHT22;26917;52.328;20.878;2022-10-16T04:49:48;11.40;99.90
18252;DHT22;26917;52.328;20.878;2022-10-16T04:52:16;11.30;99.90
18252;DHT22;26917;52.328;20.878;2022-10-16T04:54:45;11.30;99.90
18252;DHT22;26917;52.328;20.878;2022-10-16T04:57:13;11.20;99.90
18252;DHT22;26917;52.328;20.878;2022-10-16T04:59:42;11.20;99.90
18252;DHT22;26917;52.328;20.878;2022-10-16T05:02:11;11.10;99.90
18252;DHT22;26917;52.328;20.878;2022-10-16T05:04:39;11.10;99.90
18252;DHT22;26917;52.328;20.878;2022-10-16T05:07:08;11.00;99.90
18252;DHT22;26917;52.328;20.878;2022-10-16T05:09:36;11.00;99.90
18252;DHT22;26917;52.328;20.878;2022-10-16T05:12:04;11.00;99.90
18252;DHT22;26917;52.328;20.878;2022-10-16T05:14:32;11.00;99.90
18252;DHT22;26917;52.328;20.878;2022-10-16T05:17:00;11.00;99.90
18252;DHT22;26917;52.328;20.878;2022-10-16T05:19:30;11.00;99.90
18252;DHT22;26917;52.328;20.878;2022-10-16T05:21:58;11.00;99.90
18252;DHT22;26917;52.328;20.878;2022-10-16T05:24:26;10.90;99.90
18252;DHT22;26917;52.328;20.878;2022-10-16T05:26:55;10.90;99.90
18252;DHT22;26917;52.328;20.878;2022-10-16T05:29:23;10.90;99.90
18252;DHT22;26917;52.328;20.878;2022-10-16T05:31:51;10.90;99.90
18252;DHT22;26917;52.328;20.878;2022-10-16T05:34:20;10.90;99.90
18252;DHT22;26917;52.328;20.878;2022-10-16T05:36:50;10.90;99.90
18252;DHT22;26917;52.328;20.878;2022-10-16T05:39:18;10.90;99.90
18252;DHT22;26917;52.328;20.878;2022-10-16T05:41:46;10.90;99.90
18252;DHT22;26917;52.328;20.878;2022-10-16T05:44:17;11.00;99.90
18252;DHT22;26917;52.328;20.878;2022-10-16T05:46:46;11.00;99.90
18252;DHT22;26917;52.328;20.878;2022-10-16T05:49:14;11.00;99.90
18252;DHT22;26917;52.328;20.878;2022-10-16T05:51:42;11.10;99.90
18252;DHT22;26917;52.328;20.878;2022-10-16T05:54:12;11.00;99.90
18252;DHT22;26917;52.328;20.878;2022-10-16T05:56:41;11.00;99.90
18252;DHT22;26917;52.328;20.878;2022-10-16T05:59:09;11.10;99.90
18252;DHT22;26917;52.328;20.878;2022-10-16T06:01:37;11.10;99.90
18252;DHT22;26917;52.328;20.878;2022-10-16T06:04:05;11.10;99.90
18252;DHT22;26917;52.328;20.878;2022-10-16T06:06:33;11.10;99.90
18252;DHT22;26917;52.328;20.878;2022-10-16T06:09:03;11.10;99.90
18252;DHT22;26917;52.328;20.878;2022-10-16T06:11:33;11.10;99.90
18252;DHT22;26917;52.328;20.878;2022-10-16T06:14:02;11.20;99.90
18252;DHT22;26917;52.328;20.878;2022-10-16T06:16:34;11.20;99.90
18252;DHT22;26917;52.328;20.878;2022-10-16T06:19:03;11.20;99.90
18252;DHT22;26917;52.328;20.878;2022-10-16T06:21:33;11.20;99.90
18252;DHT22;26917;52.328;20.878;2022-10-16T06:24:01;11.30;99.90
18252;DHT22;26917;52.328;20.878;2022-10-16T06:26:31;11.30;99.90
18252;DHT22;26917;52.328;20.878;2022-10-16T06:29:01;11.40;99.90
18252;DHT22;26917;52.328;20.878;2022-10-16T06:31:29;11.50;99.90
18252;DHT22;26917;52.328;20.878;2022-10-16T06:34:00;11.50;99.90
18252;DHT22;26917;52.328;20.878;2022-10-16T06:36:28;11.60;99.90
18252;DHT22;26917;52.328;20.878;2022-10-16T06:38:57;11.70;99.90
18252;DHT22;26917;52.328;20.878;2022-10-16T06:41:25;11.80;99.90
18252;DHT22;26917;52.328;20.878;2022-10-16T06:43:53;11.90;99.90
18252;DHT22;26917;52.328;20.878;2022-10-16T06:46:24;12.10;99.90
18252;DHT22;26917;52.328;20.878;2022-10-16T06:48:53;12.20;99.90
18252;DHT22;26917;52.328;20.878;2022-10-16T06:51:22;12.30;99.90
18252;DHT22;26917;52.328;20.878;2022-10-16T06:53:52;12.50;99.90
18252;DHT22;26917;52.328;20.878;2022-10-16T06:56:30;12.60;99.90
18252;DHT22;26917;52.328;20.878;2022-10-16T06:58:59;12.80;99.90
18252;DHT22;26917;52.328;20.878;2022-10-16T07:01:29;13.00;99.90
18252;DHT22;26917;52.328;20.878;2022-10-16T07:03:58;13.20;99.90
18252;DHT22;26917;52.328;20.878;2022-10-16T07:06:26;13.40;99.90
18252;DHT22;26917;52.328;20.878;2022-10-16T07:12:07;13.70;99.90
18252;DHT22;26917;52.328;20.878;2022-10-16T07:14:35;13.70;99.90
18252;DHT22;26917;52.328;20.878;2022-10-16T07:17:05;13.80;99.90
18252;DHT22;26917;52.328;20.878;2022-10-16T07:19:33;13.80;99.90
18252;DHT22;26917;52.328;20.878;2022-10-16T07:22:02;13.80;99.90
18252;DHT22;26917;52.328;20.878;2022-10-16T07:24:30;13.80;99.90
18252;DHT22;26917;52.328;20.878;2022-10-16T07:26:58;13.80;99.90
18252;DHT22;26917;52.328;20.878;2022-10-16T07:29:26;13.80;99.90
18252;DHT22;26917;52.328;20.878;2022-10-16T07:31:55;13.80;99.90
18252;DHT22;26917;52.328;20.878;2022-10-16T07:34:24;13.90;99.90
18252;DHT22;26917;52.328;20.878;2022-10-16T07:36:53;13.90;99.90
18252;DHT22;26917;52.328;20.878;2022-10-16T07:39:21;14.00;99.90
18252;DHT22;26917;52.328;20.878;2022-10-16T07:41:49;14.10;99.90
18252;DHT22;26917;52.328;20.878;2022-10-16T07:44:18;14.30;99.90
18252;DHT22;26917;52.328;20.878;2022-10-16T07:46:46;14.50;99.90
18252;DHT22;26917;52.328;20.878;2022-10-16T07:49:14;14.70;99.90
18252;DHT22;26917;52.328;20.878;2022-10-16T07:51:44;14.80;99.90
18252;DHT22;26917;52.328;20.878;2022-10-16T07:54:12;14.90;99.90
18252;DHT22;26917;52.328;20.878;2022-10-16T07:56:40;15.00;99.90
18252;DHT22;26917;52.328;20.878;2022-10-16T07:59:10;15.00;99.90
18252;DHT22;26917;52.328;20.878;2022-10-16T08:01:38;15.00;99.90
18252;DHT22;26917;52.328;20.878;2022-10-16T08:04:06;15.10;99.90
18252;DHT22;26917;52.328;20.878;2022-10-16T08:06:36;15.10;99.90
18252;DHT22;26917;52.328;20.878;2022-10-16T08:09:06;15.10;99.90
18252;DHT22;26917;52.328;20.878;2022-10-16T08:11:35;15.20;99.90
18252;DHT22;26917;52.328;20.878;2022-10-16T08:14:03;15.20;99.90
18252;DHT22;26917;52.328;20.878;2022-10-16T08:16:31;15.30;99.90
18252;DHT22;26917;52.328;20.878;2022-10-16T08:18:59;15.40;99.90
18252;DHT22;26917;52.328;20.878;2022-10-16T08:21:27;15.50;99.90
18252;DHT22;26917;52.328;20.878;2022-10-16T08:23:58;15.60;99.90
18252;DHT22;26917;52.328;20.878;2022-10-16T08:26:28;15.60;99.90
18252;DHT22;26917;52.328;20.878;2022-10-16T08:28:56;15.70;99.90
18252;DHT22;26917;52.328;20.878;2022-10-16T08:31:24;15.70;99.90
18252;DHT22;26917;52.328;20.878;2022-10-16T08:33:54;15.70;99.90
18252;DHT22;26917;52.328;20.878;2022-10-16T08:36:22;15.80;99.90
18252;DHT22;26917;52.328;20.878;2022-10-16T08:38:50;15.90;99.90
18252;DHT22;26917;52.328;20.878;2022-10-16T08:44:34;16.10;99.90
18252;DHT22;26917;52.328;20.878;2022-10-16T08:47:13;16.30;99.90
18252;DHT22;26917;52.328;20.878;2022-10-16T08:49:55;16.40;99.90
18252;DHT22;26917;52.328;20.878;2022-10-16T08:52:29;16.40;99.90
18252;DHT22;26917;52.328;20.878;2022-10-16T08:54:57;16.50;99.90
18252;DHT22;26917;52.328;20.878;2022-10-16T08:57:27;16.60;99.90
18252;DHT22;26917;52.328;20.878;2022-10-16T09:00:00;16.70;99.90
18252;DHT22;26917;52.328;20.878;2022-10-16T09:02:37;16.80;99.90
18252;DHT22;26917;52.328;20.878;2022-10-16T09:05:17;16.90;99.90
18252;DHT22;26917;52.328;20.878;2022-10-16T09:07:57;17.00;99.90
18252;DHT22;26917;52.328;20.878;2022-10-16T09:10:41;17.10;99.90
18252;DHT22;26917;52.328;20.878;2022-10-16T09:13:19;17.30;99.90
18252;DHT22;26917;52.328;20.878;2022-10-16T09:15:55;17.40;99.90
18252;DHT22;26917;52.328;20.878;2022-10-16T09:18:31;17.60;99.90
18252;DHT22;26917;52.328;20.878;2022-10-16T09:21:09;17.80;99.90
18252;DHT22;26917;52.328;20.878;2022-10-16T09:23:39;17.90;99.90
18252;DHT22;26917;52.328;20.878;2022-10-16T09:26:11;18.10;99.90
18252;DHT22;26917;52.328;20.878;2022-10-16T09:28:42;18.10;99.90
18252;DHT22;26917;52.328;20.878;2022-10-16T09:31:17;18.20;99.90
18252;DHT22;26917;52.328;20.878;2022-10-16T09:33:50;18.20;99.90
18252;DHT22;26917;52.328;20.878;2022-10-16T09:36:20;18.20;99.90
18252;DHT22;26917;52.328;20.878;2022-10-16T09:38:49;18.10;99.90
18252;DHT22;26917;52.328;20.878;2022-10-16T09:41:19;18.10;99.90
18252;DHT22;26917;52.328;20.878;2022-10-16T09:43:52;18.10;99.90
18252;DHT22;26917;52.328;20.878;2022-10-16T09:46:25;18.10;99.90
18252;DHT22;26917;52.328;20.878;2022-10-16T09:48:56;18.10;99.90
18252;DHT22;26917;52.328;20.878;2022-10-16T09:51:27;18.20;99.90
18252;DHT22;26917;52.328;20.878;2022-10-16T09:53:57;18.30;99.90
18252;DHT22;26917;52.328;20.878;2022-10-16T09:56:28;18.40;99.90
18252;DHT22;26917;52.328;20.878;2022-10-16T09:58:59;18.50;99.90
18252;DHT22;26917;52.328;20.878;2022-10-16T10:01:31;18.60;99.90
18252;DHT22;26917;52.328;20.878;2022-10-16T10:04:03;18.70;99.90
18252;DHT22;26917;52.328;20.878;2022-10-16T10:06:34;18.80;99.90
18252;DHT22;26917;52.328;20.878;2022-10-16T10:09:06;18.90;99.90
18252;DHT22;26917;52.328;20.878;2022-10-16T10:11:45;19.00;99.90
18252;DHT22;26917;52.328;20.878;2022-10-16T10:14:21;19.10;99.90
18252;DHT22;26917;52.328;20.878;2022-10-16T10:16:51;19.10;99.90
18252;DHT22;26917;52.328;20.878;2022-10-16T10:19:22;19.10;99.90
18252;DHT22;26917;52.328;20.878;2022-10-16T10:21:56;19.10;99.90
18252;DHT22;26917;52.328;20.878;2022-10-16T10:24:24;19.00;99.90
18252;DHT22;26917;52.328;20.878;2022-10-16T10:26:57;19.00;99.90
18252;DHT22;26917;52.328;20.878;2022-10-16T10:29:37;18.90;99.90
18252;DHT22;26917;52.328;20.878;2022-10-16T10:32:17;18.90;99.90
18252;DHT22;26917;52.328;20.878;2022-10-16T10:35:02;18.80;99.90
18252;DHT22;26917;52.328;20.878;2022-10-16T10:38:00;18.80;99.90
18252;DHT22;26917;52.328;20.878;2022-10-16T10:40:45;18.80;99.90
18252;DHT22;26917;52.328;20.878;2022-10-16T10:43:25;18.80;99.90
18252;DHT22;26917;52.328;20.878;2022-10-16T10:46:03;18.80;99.90
18252;DHT22;26917;52.328;20.878;2022-10-16T10:48:58;18.80;99.90
18252;DHT22;26917;52.328;20.878;2022-10-16T10:51:34;18.90;99.90
18252;DHT22;26917;52.328;20.878;2022-10-16T10:54:14;18.90;99.90
18252;DHT22;26917;52.328;20.878;2022-10-16T10:56:48;19.00;99.90
18252;DHT22;26917;52.328;20.878;2022-10-16T11:02:25;19.20;99.90
18252;DHT22;26917;52.328;20.878;2022-10-16T11:05:35;19.30;99.90
18252;DHT22;26917;52.328;20.878;2022-10-16T11:08:10;19.30;99.90
18252;DHT22;26917;52.328;20.878;2022-10-16T11:10:47;19.50;99.90
18252;DHT22;26917;52.328;20.878;2022-10-16T11:13:24;19.60;99.90
18252;DHT22;26917;52.328;20.878;2022-10-16T11:15:58;19.70;99.90
18252;DHT22;26917;52.328;20.878;2022-10-16T11:18:32;19.60;99.90
18252;DHT22;26917;52.328;20.878;2022-10-16T11:21:07;19.60;99.90
18252;DHT22;26917;52.328;20.878;2022-10-16T11:23:41;19.50;99.90
18252;DHT22;26917;52.328;20.878;2022-10-16T11:26:14;19.50;99.90
18252;DHT22;26917;52.328;20.878;2022-10-16T11:28:45;19.40;99.90
18252;DHT22;26917;52.328;20.878;2022-10-16T11:31:19;19.40;99.90
18252;DHT22;26917;52.328;20.878;2022-10-16T11:33:57;19.40;99.90
18252;DHT22;26917;52.328;20.878;2022-10-16T11:36:36;19.40;99.90
18252;DHT22;26917;52.328;20.878;2022-10-16T11:39:18;19.30;99.90
18252;DHT22;26917;52.328;20.878;2022-10-16T11:41:50;19.30;99.90
18252;DHT22;26917;52.328;20.878;2022-10-16T11:44:36;19.20;99.90
18252;DHT22;26917;52.328;20.878;2022-10-16T11:47:14;19.20;99.90
18252;DHT22;26917;52.328;20.878;2022-10-16T11:50:17;19.20;99.90
18252;DHT22;26917;52.328;20.878;2022-10-16T11:52:53;19.20;99.90
18252;DHT22;26917;52.328;20.878;2022-10-16T11:55:27;19.20;99.90
18252;DHT22;26917;52.328;20.878;2022-10-16T11:58:01;19.30;99.90
18252;DHT22;26917;52.328;20.878;2022-10-16T12:00:36;19.30;99.90
18252;DHT22;26917;52.328;20.878;2022-10-16T12:03:14;19.40;99.90
18252;DHT22;26917;52.328;20.878;2022-10-16T12:06:02;19.40;99.90
18252;DHT22;26917;52.328;20.878;2022-10-16T12:08:35;19.40;99.90
18252;DHT22;26917;52.328;20.878;2022-10-16T12:11:08;19.50;99.90
18252;DHT22;26917;52.328;20.878;2022-10-16T12:13:39;19.40;99.90
18252;DHT22;26917;52.328;20.878;2022-10-16T12:16:21;19.50;99.90
18252;DHT22;26917;52.328;20.878;2022-10-16T12:19:07;19.50;99.90
18252;DHT22;26917;52.328;20.878;2022-10-16T12:21:39;19.60;99.90
18252;DHT22;26917;52.328;20.878;2022-10-16T12:24:21;19.60;99.90
18252;DHT22;26917;52.328;20.878;2022-10-16T12:26:52;19.70;99.90
18252;DHT22;26917;52.328;20.878;2022-10-16T12:29:32;19.70;99.90
18252;DHT22;26917;52.328;20.878;2022-10-16T12:32:02;19.80;99.90
18252;DHT22;26917;52.328;20.878;2022-10-16T12:34:37;19.80;99.90
18252;DHT22;26917;52.328;20.878;2022-10-16T12:37:15;19.80;99.90
18252;DHT22;26917;52.328;20.878;2022-10-16T12:39:47;19.70;99.90
18252;DHT22;26917;52.328;20.878;2022-10-16T12:42:31;19.80;99.90
18252;DHT22;26917;52.328;20.878;2022-10-16T12:45:00;19.90;99.90
18252;DHT22;26917;52.328;20.878;2022-10-16T12:47:37;19.90;99.90
18252;DHT22;26917;52.328;20.878;2022-10-16T12:50:28;20.00;99.90
18252;DHT22;26917;52.328;20.878;2022-10-16T12:53:01;20.00;99.90
18252;DHT22;26917;52.328;20.878;2022-10-16T12:55:40;19.90;99.90
18252;DHT22;26917;52.328;20.878;2022-10-16T12:58:19;19.90;99.90
18252;DHT22;26917;52.328;20.878;2022-10-16T13:00:55;19.70;99.90
18252;DHT22;26917;52.328;20.878;2022-10-16T13:03:53;19.60;99.90
18252;DHT22;26917;52.328;20.878;2022-10-16T13:06:33;19.50;99.90
18252;DHT22;26917;52.328;20.878;2022-10-16T13:09:36;19.40;99.90
18252;DHT22;26917;52.328;20.878;2022-10-16T13:12:37;19.30;99.90
18252;DHT22;26917;52.328;20.878;2022-10-16T13:15:29;19.20;99.90
18252;DHT22;26917;52.328;20.878;2022-10-16T13:18:05;19.10;99.90
18252;DHT22;26917;52.328;20.878;2022-10-16T13:20:53;19.00;99.90
18252;DHT22;26917;52.328;20.878;2022-10-16T13:23:28;18.90;99.90
18252;DHT22;26917;52.328;20.878;2022-10-16T13:26:13;18.90;99.90
18252;DHT22;26917;52.328;20.878;2022-10-16T13:28:45;18.80;99.90
18252;DHT22;26917;52.328;20.878;2022-10-16T13:31:17;18.80;99.90
18252;DHT22;26917;52.328;20.878;2022-10-16T13:33:48;18.80;99.90
18252;DHT22;26917;52.328;20.878;2022-10-16T13:36:21;18.70;99.90
18252;DHT22;26917;52.328;20.878;2022-10-16T13:39:00;18.60;99.90
18252;DHT22;26917;52.328;20.878;2022-10-16T13:41:34;18.60;99.90
18252;DHT22;26917;52.328;20.878;2022-10-16T13:44:02;18.60;99.90
18252;DHT22;26917;52.328;20.878;2022-10-16T13:46:30;18.60;99.90
18252;DHT22;26917;52.328;20.878;2022-10-16T13:49:05;18.50;99.90
18252;DHT22;26917;52.328;20.878;2022-10-16T13:51:33;18.40;99.90
18252;DHT22;26917;52.328;20.878;2022-10-16T13:54:01;18.40;99.90
18252;DHT22;26917;52.328;20.878;2022-10-16T13:56:32;18.30;99.90
18252;DHT22;26917;52.328;20.878;2022-10-16T13:59:04;18.30;99.90
18252;DHT22;26917;52.328;20.878;2022-10-16T14:01:35;18.20;99.90
18252;DHT22;26917;52.328;20.878;2022-10-16T14:04:09;18.20;99.90
18252;DHT22;26917;52.328;20.878;2022-10-16T14:06:43;18.10;99.90
18252;DHT22;26917;52.328;20.878;2022-10-16T14:09:21;18.10;99.90
18252;DHT22;26917;52.328;20.878;2022-10-16T14:11:52;18.10;99.90
18252;DHT22;26917;52.328;20.878;2022-10-16T14:14:23;18.10;99.90
18252;DHT22;26917;52.328;20.878;2022-10-16T14:16:51;18.10;99.90
18252;DHT22;26917;52.328;20.878;2022-10-16T14:19:22;18.10;99.90
18252;DHT22;26917;52.328;20.878;2022-10-16T14:21:52;18.10;99.90
18252;DHT22;26917;52.328;20.878;2022-10-16T14:24:26;18.00;99.90
18252;DHT22;26917;52.328;20.878;2022-10-16T14:26:55;18.00;99.90
18252;DHT22;26917;52.328;20.878;2022-10-16T14:29:26;18.00;99.90
18252;DHT22;26917;52.328;20.878;2022-10-16T14:31:55;18.00;99.90
18252;DHT22;26917;52.328;20.878;2022-10-16T14:34:29;18.00;99.90
18252;DHT22;26917;52.328;20.878;2022-10-16T14:37:01;18.00;99.90
18252;DHT22;26917;52.328;20.878;2022-10-16T14:39:33;17.90;99.90
18252;DHT22;26917;52.328;20.878;2022-10-16T14:42:03;17.90;99.90
18252;DHT22;26917;52.328;20.878;2022-10-16T14:44:33;17.90;99.90
18252;DHT22;26917;52.328;20.878;2022-10-16T14:47:09;18.00;99.90
18252;DHT22;26917;52.328;20.878;2022-10-16T14:49:41;18.00;99.90
18252;DHT22;26917;52.328;20.878;2022-10-16T14:52:11;18.00;99.90
18252;DHT22;26917;52.328;20.878;2022-10-16T14:54:39;18.00;99.90
18252;DHT22;26917;52.328;20.878;2022-10-16T14:57:16;17.90;99.90
18252;DHT22;26917;52.328;20.878;2022-10-16T14:59:46;17.90;99.90
18252;DHT22;26917;52.328;20.878;2022-10-16T15:02:22;17.90;99.90
18252;DHT22;26917;52.328;20.878;2022-10-16T15:04:52;17.80;99.90
18252;DHT22;26917;52.328;20.878;2022-10-16T15:07:21;17.70;99.90
18252;DHT22;26917;52.328;20.878;2022-10-16T15:09:50;17.70;99.90
18252;DHT22;26917;52.328;20.878;2022-10-16T15:12:18;17.60;99.90
18252;DHT22;26917;52.328;20.878;2022-10-16T15:14:47;17.60;99.90
18252;DHT22;26917;52.328;20.878;2022-10-16T15:17:16;17.50;99.90
18252;DHT22;26917;52.328;20.878;2022-10-16T15:19:48;17.40;99.90
18252;DHT22;26917;52.328;20.878;2022-10-16T15:22:16;17.40;99.90
18252;DHT22;26917;52.328;20.878;2022-10-16T15:24:44;17.30;99.90
18252;DHT22;26917;52.328;20.878;2022-10-16T15:27:12;17.30;99.90
18252;DHT22;26917;52.328;20.878;2022-10-16T15:29:41;17.30;99.90
18252;DHT22;26917;52.328;20.878;2022-10-16T15:32:10;17.20;99.90
18252;DHT22;26917;52.328;20.878;2022-10-16T15:34:39;17.20;99.90
18252;DHT22;26917;52.328;20.878;2022-10-16T15:37:08;17.10;99.90
18252;DHT22;26917;52.328;20.878;2022-10-16T15:39:38;17.00;99.90
18252;DHT22;26917;52.328;20.878;2022-10-16T15:42:08;17.00;99.90
18252;DHT22;26917;52.328;20.878;2022-10-16T15:44:37;17.00;99.90
18252;DHT22;26917;52.328;20.878;2022-10-16T15:47:05;16.90;99.90
18252;DHT22;26917;52.328;20.878;2022-10-16T15:49:34;16.90;99.90
18252;DHT22;26917;52.328;20.878;2022-10-16T15:52:03;16.90;99.90
18252;DHT22;26917;52.328;20.878;2022-10-16T15:54:32;16.80;99.90